createdAt,value
2024-03-05T00:00:39.460Z,-0.60
2024-03-05T00:03:06.485Z,-0.60
2024-03-05T00:05:33.528Z,-0.58
2024-03-05T00:08:00.696Z,-0.57
2024-03-05T00:10:28.109Z,-0.60
2024-03-05T00:12:55.460Z,-0.63
2024-03-05T00:15:23.005Z,-0.64
2024-03-05T00:17:50.021Z,-0.65
2024-03-05T00:20:20.398Z,-0.65
2024-03-05T00:22:48.519Z,-0.64
2024-03-05T00:25:15.882Z,-0.66
2024-03-05T00:27:43.063Z,-0.69
2024-03-05T00:30:11.034Z,-0.74
2024-03-05T00:32:41.209Z,-0.75
2024-03-05T00:35:08.727Z,-0.74
2024-03-05T00:37:37.118Z,-0.75
2024-03-05T00:40:08.069Z,-0.76
2024-03-05T00:42:39.097Z,-0.79
2024-03-05T00:45:10.013Z,-0.82
2024-03-05T00:47:37.964Z,-0.86
2024-03-05T00:50:06.031Z,-0.86
2024-03-05T00:52:34.467Z,-0.84
2024-03-05T00:55:01.967Z,-0.81
2024-03-05T00:57:30.290Z,-0.83
2024-03-05T00:59:57.766Z,-0.84
2024-03-05T01:02:24.928Z,-0.86
2024-03-05T01:04:54.498Z,-0.88
2024-03-05T01:07:21.982Z,-0.90
2024-03-05T01:09:49.396Z,-0.93
2024-03-05T01:12:17.163Z,-0.94
2024-03-05T01:14:45.388Z,-0.94
2024-03-05T01:17:13.989Z,-0.94
2024-03-05T01:19:41.164Z,-0.95
2024-03-05T01:22:08.344Z,-0.96
2024-03-05T01:24:35.432Z,-0.98
2024-03-05T01:27:02.478Z,-1.01
2024-03-05T01:29:31.813Z,-1.03
2024-03-05T01:32:01.404Z,-1.03
2024-03-05T01:34:34.222Z,-1.04
2024-03-05T01:37:01.400Z,-1.09
2024-03-05T01:39:29.837Z,-1.12
2024-03-05T01:41:57.343Z,-1.14
2024-03-05T01:44:24.929Z,-1.15
2024-03-05T01:46:53.078Z,-1.16
2024-03-05T01:49:20.629Z,-1.16
2024-03-05T01:51:47.631Z,-1.18
2024-03-05T01:54:15.570Z,-1.21
2024-03-05T01:56:43.945Z,-1.25
2024-03-05T01:59:11.371Z,-1.28
2024-03-05T02:01:38.679Z,-1.31
2024-03-05T02:04:05.730Z,-1.31
2024-03-05T02:06:32.986Z,-1.35
2024-03-05T02:09:01.034Z,-1.39
2024-03-05T02:11:28.230Z,-1.44
2024-03-05T02:13:55.344Z,-1.47
2024-03-05T02:16:22.393Z,-1.49
2024-03-05T02:18:49.599Z,-1.49
2024-03-05T02:21:22.023Z,-1.52
2024-03-05T02:23:49.561Z,-1.55
2024-03-05T02:26:18.886Z,-1.58
2024-03-05T02:28:47.818Z,-1.61
2024-03-05T02:31:14.880Z,-1.62
2024-03-05T02:33:43.442Z,-1.64
2024-03-05T02:36:10.556Z,-1.64
2024-03-05T02:38:39.432Z,-1.65
2024-03-05T02:41:06.906Z,-1.68
2024-03-05T02:43:34.933Z,-1.71
2024-03-05T02:46:02.072Z,-1.72
2024-03-05T02:48:29.116Z,-1.71
2024-03-05T02:50:56.582Z,-1.75
2024-03-05T02:53:25.472Z,-1.76
2024-03-05T02:55:52.439Z,-1.76
2024-03-05T02:58:19.561Z,-1.80
2024-03-05T03:00:48.294Z,-1.83
2024-03-05T03:03:15.995Z,-1.84
2024-03-05T03:05:42.997Z,-1.83
2024-03-05T03:08:10.066Z,-1.81
2024-03-05T03:10:37.183Z,-1.83
2024-03-05T03:13:04.357Z,-1.83
2024-03-05T03:15:31.759Z,-1.84
2024-03-05T03:17:59.208Z,-1.86
2024-03-05T03:20:26.297Z,-1.87
2024-03-05T03:22:53.636Z,-1.89
2024-03-05T03:25:20.837Z,-1.91
2024-03-05T03:27:47.922Z,-1.92
2024-03-05T03:30:19.499Z,-1.95
2024-03-05T03:32:51.573Z,-1.96
2024-03-05T03:35:19.270Z,-1.94
2024-03-05T03:37:46.193Z,-1.94
2024-03-05T03:40:22.291Z,-1.94
2024-03-05T03:42:50.911Z,-1.96
2024-03-05T03:45:18.523Z,-1.97
2024-03-05T03:47:47.450Z,-2.02
2024-03-05T03:50:14.745Z,-2.06
2024-03-05T03:52:42.545Z,-2.11
2024-03-05T03:55:10.337Z,-2.16
2024-03-05T03:57:37.541Z,-2.17
2024-03-05T04:00:09.306Z,-2.17
2024-03-05T04:02:37.857Z,-2.17
2024-03-05T04:05:06.240Z,-2.16
2024-03-05T04:07:33.770Z,-2.14
2024-03-05T04:10:03.824Z,-2.13
2024-03-05T04:12:31.268Z,-2.15
2024-03-05T04:14:58.220Z,-2.14
2024-03-05T04:17:25.519Z,-2.12
2024-03-05T04:19:52.777Z,-2.12
2024-03-05T04:22:19.851Z,-2.11
2024-03-05T04:24:58.354Z,-2.10
2024-03-05T04:27:28.336Z,-2.05
2024-03-05T04:29:58.255Z,-2.04
2024-03-05T04:32:28.278Z,-2.07
2024-03-05T04:35:07.984Z,-2.11
2024-03-05T04:37:34.997Z,-2.12
2024-03-05T04:40:01.951Z,-2.09
2024-03-05T04:42:29.624Z,-2.08
2024-03-05T04:44:56.666Z,-2.04
2024-03-05T04:47:26.236Z,-2.00
2024-03-05T04:49:53.453Z,-1.96
2024-03-05T04:52:20.653Z,-1.96
2024-03-05T04:54:47.673Z,-1.98
2024-03-05T04:57:14.745Z,-1.99
2024-03-05T04:59:42.493Z,-1.99
2024-03-05T05:02:10.334Z,-1.96
2024-03-05T05:04:39.463Z,-1.91
2024-03-05T05:07:09.612Z,-1.88
2024-03-05T05:09:41.127Z,-1.80
2024-03-05T05:12:08.295Z,-1.71
2024-03-05T05:14:38.632Z,-1.65
2024-03-05T05:17:06.260Z,-1.65
2024-03-05T05:19:33.404Z,-1.64
2024-03-05T05:22:00.443Z,-1.61
2024-03-05T05:24:27.444Z,-1.56
2024-03-05T05:26:54.524Z,-1.54
2024-03-05T05:29:31.429Z,-1.44
2024-03-05T05:32:08.960Z,-1.28
2024-03-05T05:34:36.806Z,-1.22
2024-03-05T05:37:03.867Z,-1.26
2024-03-05T05:39:30.896Z,-1.22
2024-03-05T05:41:57.827Z,-1.17
2024-03-05T05:44:24.968Z,-1.12
2024-03-05T05:46:52.606Z,-1.08
2024-03-05T05:49:22.602Z,-1.04
2024-03-05T05:51:52.661Z,-1.13
2024-03-05T05:54:22.632Z,-1.18
2024-03-05T05:56:50.337Z,-1.11
2024-03-05T05:59:18.926Z,-0.99
2024-03-05T06:01:46.662Z,-0.86
2024-03-05T06:04:15.761Z,-0.79
2024-03-05T06:06:42.916Z,-0.75
2024-03-05T06:09:10.311Z,-0.71
2024-03-05T06:11:38.053Z,-0.64
2024-03-05T06:14:05.490Z,-0.57
2024-03-05T06:16:32.676Z,-0.45
2024-03-05T06:19:00.020Z,-0.34
2024-03-05T06:21:27.215Z,-0.20
2024-03-05T06:23:54.199Z,-0.14
2024-03-05T06:26:21.248Z,-0.04
2024-03-05T06:28:48.331Z,0.10
2024-03-05T06:31:16.098Z,0.22
2024-03-05T06:33:43.183Z,0.26
2024-03-05T06:36:13.732Z,0.38
2024-03-05T06:38:41.148Z,0.46
2024-03-05T06:41:09.717Z,0.49
2024-03-05T06:43:39.809Z,0.56
2024-03-05T06:46:11.164Z,0.74
2024-03-05T06:48:39.481Z,0.95
2024-03-05T06:51:17.704Z,1.16
2024-03-05T06:54:03.395Z,1.24
2024-03-05T06:56:42.633Z,1.33
2024-03-05T06:59:11.817Z,1.41
2024-03-05T07:01:39.088Z,1.49
2024-03-05T07:04:08.191Z,1.48
2024-03-05T07:06:36.851Z,1.55
2024-03-05T07:09:03.998Z,1.62
2024-03-05T07:11:31.613Z,1.64
2024-03-05T07:13:59.509Z,1.55
2024-03-05T07:16:26.841Z,1.46
2024-03-05T07:18:56.855Z,1.41
2024-03-05T07:21:24.940Z,1.43
2024-03-05T07:23:54.674Z,1.49
2024-03-05T07:26:22.987Z,1.58
2024-03-05T07:28:50.393Z,1.63
2024-03-05T07:31:18.700Z,1.70
2024-03-05T07:33:49.279Z,1.92
2024-03-05T07:36:19.304Z,2.22
2024-03-05T07:38:47.069Z,2.42
2024-03-05T07:41:22.780Z,2.55
2024-03-05T07:43:57.244Z,2.80
2024-03-05T07:46:24.463Z,2.91
2024-03-05T07:48:51.403Z,3.01
2024-03-05T07:51:24.396Z,3.03
2024-03-05T07:53:55.249Z,3.09
2024-03-05T07:56:22.560Z,2.98
2024-03-05T07:58:49.748Z,2.92
2024-03-05T08:01:17.017Z,3.09
2024-03-05T08:03:44.407Z,3.37
2024-03-05T08:06:11.367Z,3.64
2024-03-05T08:08:38.506Z,3.85
2024-03-05T08:11:06.356Z,4.11
2024-03-05T08:13:36.904Z,4.39
2024-03-05T08:16:06.684Z,4.59
2024-03-05T08:18:33.926Z,4.62
2024-03-05T08:21:03.606Z,4.54
2024-03-05T08:23:30.797Z,4.47
2024-03-05T08:25:57.955Z,4.50
2024-03-05T08:28:25.782Z,4.65
2024-03-05T08:30:55.263Z,4.73
2024-03-05T08:33:25.236Z,4.89
2024-03-05T08:35:52.401Z,5.07
2024-03-05T08:38:19.394Z,5.16
2024-03-05T08:40:47.578Z,5.14
2024-03-05T08:43:15.675Z,5.14
2024-03-05T08:45:42.763Z,5.26
2024-03-05T08:48:09.916Z,5.34
2024-03-05T08:50:36.993Z,5.42
2024-03-05T08:53:06.336Z,5.44
2024-03-05T08:55:33.693Z,5.38
2024-03-05T08:58:01.786Z,5.36
2024-03-05T09:00:40.949Z,5.49
2024-03-05T09:04:11.651Z,5.70
2024-03-05T09:11:07.142Z,6.04
2024-03-05T09:13:34.554Z,6.06
2024-03-05T09:16:34.562Z,6.13
2024-03-05T09:19:02.040Z,6.23
2024-03-05T09:21:30.018Z,6.30
2024-03-05T09:23:58.398Z,6.40
2024-03-05T09:26:27.313Z,6.48
2024-03-05T09:28:55.234Z,6.54
2024-03-05T09:31:22.710Z,6.57
2024-03-05T09:33:50.166Z,6.61
2024-03-05T10:29:17.329Z,7.83
2024-03-05T10:31:45.485Z,7.86
2024-03-05T10:34:12.425Z,7.89
2024-03-05T10:36:40.924Z,7.87
2024-03-05T10:39:08.906Z,7.78
2024-03-05T10:41:47.205Z,7.72
2024-03-05T10:44:18.442Z,7.73
2024-03-05T10:46:46.789Z,7.89
2024-03-05T10:49:14.189Z,7.99
2024-03-05T10:51:41.774Z,8.03
2024-03-05T10:54:08.813Z,8.07
2024-03-05T11:01:01.440Z,8.04
2024-03-05T11:03:40.998Z,7.99
2024-03-05T11:06:08.774Z,7.98
2024-03-05T11:08:36.773Z,8.03
2024-03-05T11:11:06.620Z,8.05
2024-03-05T11:13:34.163Z,8.05
2024-03-05T11:16:03.398Z,8.10
2024-03-05T11:18:35.123Z,8.16
2024-03-05T11:21:09.326Z,8.25
2024-03-05T11:30:31.057Z,8.35
2024-03-05T11:33:10.716Z,8.37
2024-03-05T11:35:43.002Z,8.39
2024-03-05T11:38:15.485Z,8.37
2024-03-05T11:40:44.756Z,8.45
2024-03-05T11:50:54.714Z,8.86
2024-03-05T11:53:21.356Z,8.94
2024-03-05T11:55:51.957Z,8.95
2024-03-05T11:58:25.525Z,8.94
2024-03-05T12:01:01.627Z,8.84
2024-03-05T12:03:28.465Z,8.81
2024-03-05T12:05:55.381Z,8.77
2024-03-05T12:08:25.975Z,8.75
2024-03-05T12:11:01.118Z,8.74
2024-03-05T12:13:27.937Z,8.70
2024-03-05T12:15:54.525Z,8.70
2024-03-05T12:18:21.067Z,8.69
2024-03-05T12:20:48.131Z,8.79
2024-03-05T12:23:15.124Z,8.90
2024-03-05T12:26:03.057Z,8.99
2024-03-05T12:28:33.589Z,9.01
2024-03-05T12:31:00.680Z,8.91
2024-03-05T12:33:27.737Z,8.82
2024-03-05T12:35:54.980Z,8.83
2024-03-05T12:38:23.599Z,8.82
2024-03-05T12:41:00.575Z,8.76
2024-03-05T12:43:29.850Z,8.66
2024-03-05T12:46:02.955Z,8.69
2024-03-05T12:48:32.531Z,8.63
2024-03-05T12:51:03.890Z,8.48
2024-03-05T12:53:31.827Z,8.33
2024-03-05T12:56:02.378Z,8.17
2024-03-05T12:58:43.504Z,8.06
2024-03-05T13:01:15.437Z,7.95
2024-03-05T13:03:45.686Z,7.87
2024-03-05T13:06:14.892Z,7.82
2024-03-05T13:08:42.309Z,7.84
2024-03-05T13:11:09.122Z,7.86
2024-03-05T13:13:35.839Z,7.83
2024-03-05T13:16:02.522Z,7.78
2024-03-05T13:18:29.575Z,7.71
2024-03-05T13:20:57.419Z,7.70
2024-03-05T13:23:24.350Z,7.70
2024-03-05T13:25:51.040Z,7.68
2024-03-05T13:28:17.660Z,7.64
2024-03-05T13:30:44.715Z,7.61
2024-03-05T13:33:12.702Z,7.59
2024-03-05T13:35:41.266Z,7.56
2024-03-05T13:38:10.848Z,7.49
2024-03-05T13:40:37.898Z,7.35
2024-03-05T13:43:04.864Z,7.22
2024-03-05T13:45:31.602Z,7.14
2024-03-05T13:47:58.552Z,7.09
2024-03-05T13:50:25.298Z,7.07
2024-03-05T13:52:52.271Z,7.07
2024-03-05T13:55:24.921Z,7.05
2024-03-05T13:57:52.515Z,7.06
2024-03-05T14:00:20.164Z,7.06
2024-03-05T14:02:46.880Z,7.03
2024-03-05T14:05:14.050Z,6.99
2024-03-05T14:07:40.650Z,6.96
2024-03-05T14:10:11.246Z,6.91
2024-03-05T14:12:42.366Z,6.84
2024-03-05T14:15:20.192Z,6.75
2024-03-05T14:17:46.737Z,6.63
2024-03-05T14:20:14.003Z,6.54
2024-03-05T14:22:43.891Z,6.47
2024-03-05T14:25:12.301Z,6.41
2024-03-05T14:27:42.315Z,6.36
2024-03-05T14:30:14.265Z,6.29
2024-03-05T14:32:43.830Z,6.23
2024-03-05T14:35:11.207Z,6.18
2024-03-05T14:37:37.821Z,6.14
2024-03-05T14:40:05.570Z,6.09
2024-03-05T14:42:34.421Z,6.07
2024-03-05T14:45:01.672Z,6.06
2024-03-05T14:47:28.198Z,6.03
2024-03-05T14:49:55.354Z,5.98
2024-03-05T14:52:22.979Z,5.94
2024-03-05T14:54:49.683Z,5.90
2024-03-05T14:57:16.213Z,5.86
2024-03-05T14:59:42.801Z,5.81
2024-03-05T15:02:10.414Z,5.76
2024-03-05T15:04:37.107Z,5.72
2024-03-05T15:07:04.269Z,5.66
2024-03-05T15:09:33.577Z,5.61
2024-03-05T15:18:36.798Z,5.48
2024-03-05T15:21:10.095Z,5.43
2024-03-05T15:23:38.717Z,5.39
2024-03-05T15:26:07.108Z,5.34
2024-03-05T15:28:38.173Z,5.30
2024-03-05T15:31:10.318Z,5.26
2024-03-05T15:33:41.118Z,5.21
2024-03-05T15:36:09.809Z,5.16
2024-03-05T15:38:36.983Z,5.12
2024-03-05T15:47:40.775Z,4.98
2024-03-05T15:50:10.400Z,4.92
2024-03-05T15:52:37.953Z,4.89
2024-03-05T15:55:06.174Z,4.86
2024-03-05T15:57:53.554Z,4.81
2024-03-05T16:00:30.640Z,4.76
2024-03-05T16:03:10.969Z,4.72
2024-03-05T16:05:51.796Z,4.67
2024-03-05T16:08:27.484Z,4.61
2024-03-05T16:10:55.756Z,4.57
2024-03-05T16:13:23.675Z,4.53
2024-03-05T16:15:51.604Z,4.49
2024-03-05T16:18:19.100Z,4.45
2024-03-05T16:20:47.601Z,4.44
2024-03-05T16:23:15.308Z,4.43
2024-03-05T16:25:43.115Z,4.40
2024-03-05T16:28:10.921Z,4.37
2024-03-05T16:30:39.459Z,4.34
2024-03-05T16:33:07.899Z,4.31
2024-03-05T16:35:37.221Z,4.28
2024-03-05T16:38:06.188Z,4.27
2024-03-05T16:40:38.349Z,4.26
2024-03-05T16:43:07.660Z,4.25
2024-03-05T16:45:36.579Z,4.24
2024-03-05T16:48:10.902Z,4.22
2024-03-05T16:50:44.201Z,4.20
2024-03-05T16:53:12.746Z,4.18
2024-03-05T16:55:40.939Z,4.15
2024-03-05T16:58:13.508Z,4.12
2024-03-05T17:00:49.066Z,4.09
2024-03-05T17:03:16.470Z,4.07
2024-03-05T17:05:47.773Z,4.05
2024-03-05T17:08:16.192Z,3.99
2024-03-05T17:10:45.732Z,3.93
2024-03-05T17:13:20.395Z,3.84
2024-03-05T17:15:56.610Z,3.76
2024-03-05T17:18:25.528Z,3.71
2024-03-05T17:20:54.960Z,3.65
2024-03-05T17:23:26.225Z,3.60
2024-03-05T17:25:57.521Z,3.54
2024-03-05T17:28:28.236Z,3.49
2024-03-05T17:30:57.558Z,3.45
2024-03-05T17:33:25.544Z,3.38
2024-03-05T17:35:56.567Z,3.32
2024-03-05T17:38:26.272Z,3.27
2024-03-05T17:40:54.654Z,3.23
2024-03-05T17:43:21.871Z,3.19
2024-03-05T17:45:49.730Z,3.18
2024-03-05T17:48:17.315Z,3.14
2024-03-05T17:50:46.360Z,3.08
2024-03-05T17:53:14.571Z,3.03
2024-03-05T17:55:41.832Z,3.00
2024-03-05T17:58:10.013Z,2.98
2024-03-05T18:00:46.723Z,2.97
2024-03-05T18:03:19.007Z,2.93
2024-03-05T18:05:47.257Z,2.90
2024-03-05T18:08:15.067Z,2.87
2024-03-05T18:10:43.483Z,2.82
2024-03-05T18:13:11.926Z,2.76
2024-03-05T18:15:40.100Z,2.73
2024-03-05T18:18:08.168Z,2.71
2024-03-05T18:20:36.841Z,2.71
2024-03-05T18:23:06.711Z,2.68
2024-03-05T18:32:16.904Z,2.57
2024-03-05T18:34:44.390Z,2.50
2024-03-05T18:37:13.190Z,2.46
2024-03-05T18:39:40.352Z,2.41
2024-03-05T18:42:10.544Z,2.40
2024-03-05T18:44:39.426Z,2.38
2024-03-05T18:47:08.278Z,2.34
2024-03-05T18:49:35.864Z,2.31
2024-03-05T18:52:05.059Z,2.29
2024-03-05T18:54:32.548Z,2.29
2024-03-05T18:57:01.333Z,2.27
2024-03-05T18:59:30.489Z,2.24
2024-03-05T19:01:57.928Z,2.22
2024-03-05T19:04:27.804Z,2.20
2024-03-05T19:06:55.088Z,2.16
2024-03-05T19:09:22.301Z,2.09
2024-03-05T19:11:49.745Z,2.04
2024-03-05T19:14:19.020Z,2.00
2024-03-05T19:16:48.590Z,1.99
2024-03-05T19:19:16.982Z,1.98
2024-03-05T19:21:45.546Z,1.98
2024-03-05T19:24:13.298Z,1.95
2024-03-05T19:26:40.725Z,1.93
2024-03-05T19:29:08.369Z,1.92
2024-03-05T19:31:35.917Z,1.91
2024-03-05T19:34:04.214Z,1.91
2024-03-05T19:36:32.566Z,1.91
2024-03-05T19:39:00.621Z,1.89
2024-03-05T19:41:28.756Z,1.85
2024-03-05T19:43:59.953Z,1.84
2024-03-05T19:46:27.701Z,1.84
2024-03-05T19:48:56.691Z,1.84
2024-03-05T19:57:38.500Z,1.76
2024-03-05T20:00:13.439Z,1.74
2024-03-05T20:02:41.413Z,1.69
2024-03-05T20:05:09.112Z,1.66
2024-03-05T20:07:36.907Z,1.67
2024-03-05T20:10:05.689Z,1.66
2024-03-05T20:12:33.015Z,1.65
2024-03-05T20:15:00.078Z,1.64
2024-03-05T20:17:28.643Z,1.64
2024-03-05T20:19:55.984Z,1.64
2024-03-05T20:22:26.289Z,1.64
2024-03-05T20:25:00.282Z,1.65
2024-03-05T20:27:34.092Z,1.63
2024-03-05T20:30:02.748Z,1.57
2024-03-05T20:32:30.743Z,1.53
2024-03-05T20:34:58.910Z,1.49
2024-03-05T20:37:27.166Z,1.47
2024-03-05T20:39:57.343Z,1.46
2024-03-05T20:42:24.881Z,1.44
2024-03-05T20:44:52.293Z,1.40
2024-03-05T20:47:20.470Z,1.34
2024-03-05T20:49:48.003Z,1.30
2024-03-05T20:52:19.353Z,1.28
2024-03-05T20:54:47.453Z,1.25
2024-03-05T20:57:14.841Z,1.22
2024-03-05T20:59:43.485Z,1.21
2024-03-05T21:02:11.817Z,1.17
2024-03-05T21:04:39.642Z,1.10
2024-03-05T21:07:07.433Z,1.04
2024-03-05T21:09:34.940Z,1.01
2024-03-05T21:12:05.060Z,0.99
2024-03-05T21:14:33.154Z,0.97
2024-03-05T21:17:00.539Z,0.95
2024-03-05T21:19:30.051Z,0.93
2024-03-05T21:21:57.879Z,0.92
2024-03-05T21:24:27.605Z,0.91
2024-03-05T21:27:10.038Z,0.89
2024-03-05T21:29:42.283Z,0.88
2024-03-05T21:32:10.134Z,0.87
2024-03-05T21:34:37.558Z,0.85
2024-03-05T21:37:05.353Z,0.81
2024-03-05T21:46:00.137Z,0.76
2024-03-05T21:48:28.047Z,0.66
2024-03-05T21:51:03.505Z,0.52
2024-03-05T21:53:40.058Z,0.41
2024-03-05T21:56:07.776Z,0.28
2024-03-05T21:58:37.562Z,0.13
2024-03-05T22:01:06.091Z,-0.02
2024-03-05T22:03:36.196Z,-0.14
2024-03-05T22:06:11.914Z,-0.24
2024-03-05T22:08:42.502Z,-0.34
2024-03-05T22:35:21.682Z,-1.02
2024-03-05T22:37:54.036Z,-1.03
2024-03-05T22:40:23.390Z,-1.04
2024-03-05T22:42:50.810Z,-1.04
2024-03-05T22:45:21.249Z,-1.04
2024-03-05T22:47:52.403Z,-1.05
2024-03-05T22:50:19.960Z,-1.07
2024-03-05T22:52:47.253Z,-1.10
2024-03-05T22:55:14.399Z,-1.12
2024-03-05T22:57:52.034Z,-1.14
2024-03-05T23:00:51.823Z,-1.19
2024-03-05T23:03:19.497Z,-1.20
2024-03-05T23:05:47.896Z,-1.19
2024-03-05T23:08:15.787Z,-1.20
2024-03-05T23:10:43.132Z,-1.20
2024-03-05T23:13:10.561Z,-1.18
2024-03-05T23:15:38.516Z,-1.19
2024-03-05T23:18:07.034Z,-1.19
2024-03-05T23:20:34.220Z,-1.20
2024-03-05T23:23:01.453Z,-1.21
2024-03-05T23:25:29.010Z,-1.21
2024-03-05T23:27:58.764Z,-1.22
2024-03-05T23:30:27.305Z,-1.23
2024-03-05T23:32:56.018Z,-1.26
2024-03-05T23:35:23.961Z,-1.29
2024-03-05T23:38:12.994Z,-1.34
2024-03-05T23:40:40.620Z,-1.39
2024-03-05T23:43:07.802Z,-1.42
2024-03-05T23:45:35.256Z,-1.44
2024-03-05T23:48:02.631Z,-1.41
2024-03-05T23:50:30.551Z,-1.39
2024-03-05T23:52:57.618Z,-1.37
2024-03-05T23:55:24.954Z,-1.34
2024-03-05T23:57:52.114Z,-1.32
